createdAt,value
2019-02-09T00:01:02.000Z,0
2019-02-09T00:02:14.000Z,0
2019-02-09T00:03:27.000Z,0
2019-02-09T00:04:39.000Z,0
2019-02-09T00:09:28.000Z,0
2019-02-09T00:10:41.000Z,0
2019-02-09T00:11:53.000Z,0
2019-02-09T00:13:05.000Z,0
2019-02-09T00:14:18.000Z,0
2019-02-09T00:15:30.000Z,0
2019-02-09T00:16:42.000Z,0
2019-02-09T00:17:55.000Z,0
2019-02-09T00:19:07.000Z,0
2019-02-09T00:20:19.000Z,0
2019-02-09T00:22:44.000Z,0
2019-02-09T00:23:57.000Z,0
2019-02-09T00:25:09.000Z,0
2019-02-09T00:26:21.000Z,0
2019-02-09T00:27:34.000Z,0
2019-02-09T00:28:46.000Z,0
2019-02-09T00:29:58.000Z,0
2019-02-09T00:31:11.000Z,0
2019-02-09T00:32:23.000Z,0
2019-02-09T00:33:35.000Z,0
2019-02-09T00:34:48.000Z,0
2019-02-09T00:36:00.000Z,0
2019-02-09T00:38:25.000Z,0
2019-02-09T00:39:37.000Z,0
2019-02-09T00:40:50.000Z,0
2019-02-09T00:42:02.000Z,0
2019-02-09T00:43:14.000Z,0
2019-02-09T00:44:27.000Z,0
2019-02-09T00:49:16.000Z,0
2019-02-09T00:50:28.000Z,0
2019-02-09T00:51:41.000Z,0
2019-02-09T00:52:53.000Z,0
2019-02-09T00:54:05.000Z,0
2019-02-09T00:56:30.000Z,0
2019-02-09T00:57:42.000Z,0
2019-02-09T00:58:55.000Z,0
2019-02-09T01:00:07.000Z,0
2019-02-09T01:01:20.000Z,0
2019-02-09T01:02:32.000Z,0
2019-02-09T01:03:44.000Z,0
2019-02-09T01:04:57.000Z,0
2019-02-09T01:06:09.000Z,0
2019-02-09T01:10:58.000Z,0
2019-02-09T01:12:11.000Z,0
2019-02-09T01:14:35.000Z,0
2019-02-09T01:15:48.000Z,0
2019-02-09T01:17:00.000Z,0
2019-02-09T01:19:25.000Z,0
2019-02-09T01:20:37.000Z,0
2019-02-09T01:21:50.000Z,0
2019-02-09T01:25:27.000Z,0
2019-02-09T01:26:39.000Z,0
2019-02-09T01:29:04.000Z,0
2019-02-09T01:30:16.000Z,0
2019-02-09T01:31:28.000Z,0
2019-02-09T01:32:41.000Z,0
2019-02-09T01:35:05.000Z,0
2019-02-09T01:36:18.000Z,0
2019-02-09T01:38:43.000Z,0
2019-02-09T01:39:55.000Z,0
2019-02-09T01:41:07.000Z,0
2019-02-09T01:42:20.000Z,0
2019-02-09T01:45:57.000Z,0
2019-02-09T01:47:09.000Z,0
2019-02-09T01:48:21.000Z,0
2019-02-09T01:50:46.000Z,0
2019-02-09T01:51:58.000Z,0
2019-02-09T01:53:11.000Z,0
2019-02-09T01:54:23.000Z,0
2019-02-09T01:55:35.000Z,0
2019-02-09T01:56:48.000Z,0
2019-02-09T01:59:13.000Z,0
2019-02-09T02:00:25.000Z,0
2019-02-09T02:01:37.000Z,0
2019-02-09T02:02:50.000Z,0
2019-02-09T02:04:02.000Z,0
2019-02-09T02:05:14.000Z,0
2019-02-09T02:06:27.000Z,0
2019-02-09T02:07:39.000Z,0
2019-02-09T02:08:51.000Z,0
2019-02-09T02:12:28.000Z,0
2019-02-09T02:13:41.000Z,0
2019-02-09T02:14:53.000Z,0
2019-02-09T02:16:06.000Z,0
2019-02-09T02:17:18.000Z,0
2019-02-09T02:18:30.000Z,0
2019-02-09T02:19:43.000Z,0
2019-02-09T02:20:55.000Z,0
2019-02-09T02:23:20.000Z,0
2019-02-09T02:24:32.000Z,0
2019-02-09T02:26:57.000Z,0
2019-02-09T02:28:09.000Z,0
2019-02-09T02:29:21.000Z,0
2019-02-09T02:31:46.000Z,0
2019-02-09T02:32:58.000Z,0
2019-02-09T02:34:11.000Z,0
2019-02-09T02:35:23.000Z,0
2019-02-09T02:36:36.000Z,0
2019-02-09T02:37:48.000Z,0
2019-02-09T02:39:00.000Z,0
2019-02-09T02:41:25.000Z,0
2019-02-09T02:42:37.000Z,0
2019-02-09T02:43:50.000Z,0
2019-02-09T02:45:02.000Z,0
2019-02-09T02:47:27.000Z,0
2019-02-09T02:48:39.000Z,0
2019-02-09T02:49:51.000Z,0
2019-02-09T02:52:16.000Z,0
2019-02-09T02:53:28.000Z,0
2019-02-09T02:54:41.000Z,0
2019-02-09T02:55:53.000Z,0
2019-02-09T02:57:06.000Z,0
2019-02-09T02:58:18.000Z,0
2019-02-09T02:59:30.000Z,0
2019-02-09T03:01:55.000Z,0
2019-02-09T03:03:07.000Z,0
2019-02-09T03:05:32.000Z,0
2019-02-09T03:06:44.000Z,0
2019-02-09T03:07:57.000Z,0
2019-02-09T03:09:09.000Z,0
2019-02-09T03:11:34.000Z,0
2019-02-09T03:12:46.000Z,0
2019-02-09T03:15:11.000Z,0
2019-02-09T03:16:23.000Z,0
2019-02-09T03:17:36.000Z,0
2019-02-09T03:18:48.000Z,0
2019-02-09T03:20:00.000Z,0
2019-02-09T03:22:25.000Z,0
2019-02-09T03:23:37.000Z,0
2019-02-09T03:24:50.000Z,0
2019-02-09T03:26:02.000Z,0
2019-02-09T03:27:14.000Z,0
2019-02-09T03:28:27.000Z,0
2019-02-09T03:29:39.000Z,0
2019-02-09T03:30:51.000Z,0
2019-02-09T03:33:16.000Z,0
2019-02-09T03:35:41.000Z,0
2019-02-09T03:38:06.000Z,0
2019-02-09T03:39:18.000Z,0
2019-02-09T03:40:30.000Z,0
2019-02-09T03:41:43.000Z,0
2019-02-09T03:44:07.000Z,0
2019-02-09T03:45:20.000Z,0
2019-02-09T03:46:32.000Z,0
2019-02-09T03:48:57.000Z,0
2019-02-09T03:50:09.000Z,0
2019-02-09T03:51:21.000Z,0
2019-02-09T03:53:46.000Z,0
2019-02-09T03:54:59.000Z,0
2019-02-09T03:57:23.000Z,0
2019-02-09T03:59:48.000Z,0
2019-02-09T04:01:00.000Z,0
2019-02-09T04:04:37.000Z,0
2019-02-09T04:05:50.000Z,0
2019-02-09T04:07:02.000Z,0
2019-02-09T04:08:14.000Z,0
2019-02-09T04:09:27.000Z,0
2019-02-09T04:11:52.000Z,0
2019-02-09T04:14:16.000Z,0
2019-02-09T04:15:29.000Z,0
2019-02-09T04:16:41.000Z,0
2019-02-09T04:17:53.000Z,0
2019-02-09T04:19:06.000Z,0
2019-02-09T04:23:55.000Z,0
2019-02-09T04:25:07.000Z,0
2019-02-09T04:26:20.000Z,0
2019-02-09T04:27:32.000Z,0
2019-02-09T04:28:44.000Z,0
2019-02-09T04:29:57.000Z,0
2019-02-09T04:31:09.000Z,0
2019-02-09T04:32:22.000Z,0
2019-02-09T04:34:46.000Z,0
2019-02-09T04:35:59.000Z,0
2019-02-09T04:37:11.000Z,0
2019-02-09T04:38:23.000Z,0
2019-02-09T04:39:36.000Z,0
2019-02-09T04:40:48.000Z,0
2019-02-09T04:42:00.000Z,0
2019-02-09T04:44:25.000Z,0
2019-02-09T04:45:37.000Z,0
2019-02-09T04:48:02.000Z,0
2019-02-09T04:49:14.000Z,0
2019-02-09T04:50:27.000Z,0
2019-02-09T04:52:52.000Z,0
2019-02-09T04:55:16.000Z,0
2019-02-09T04:56:29.000Z,0
2019-02-09T04:57:41.000Z,0
2019-02-09T04:58:53.000Z,0
2019-02-09T05:00:06.000Z,0
2019-02-09T05:01:18.000Z,0
2019-02-09T05:02:30.000Z,0
2019-02-09T05:03:43.000Z,0
2019-02-09T05:04:55.000Z,0
2019-02-09T05:06:07.000Z,0
2019-02-09T05:07:20.000Z,0
2019-02-09T05:09:45.000Z,0
2019-02-09T05:12:09.000Z,0
2019-02-09T05:13:22.000Z,0
2019-02-09T05:15:46.000Z,0
2019-02-09T05:16:59.000Z,0
2019-02-09T05:18:11.000Z,0
2019-02-09T05:19:23.000Z,0
2019-02-09T05:20:36.000Z,0
2019-02-09T05:21:48.000Z,0
2019-02-09T05:24:13.000Z,0
2019-02-09T05:25:25.000Z,0
2019-02-09T05:26:37.000Z,0
2019-02-09T05:27:50.000Z,0
2019-02-09T05:29:02.000Z,0
2019-02-09T05:30:15.000Z,0
2019-02-09T05:31:27.000Z,0
2019-02-09T05:32:39.000Z,0
2019-02-09T05:33:52.000Z,0
2019-02-09T05:36:16.000Z,0
2019-02-09T05:37:29.000Z,0
2019-02-09T05:38:41.000Z,0
2019-02-09T05:39:53.000Z,0
2019-02-09T05:41:06.000Z,0
2019-02-09T05:42:18.000Z,0
2019-02-09T05:43:30.000Z,0
2019-02-09T05:45:55.000Z,0
2019-02-09T05:47:07.000Z,0
2019-02-09T05:48:20.000Z,0
2019-02-09T05:50:45.000Z,0
2019-02-09T05:51:57.000Z,0
2019-02-09T05:53:09.000Z,0
2019-02-09T05:54:22.000Z,0
2019-02-09T05:56:46.000Z,0
2019-02-09T05:57:59.000Z,0
2019-02-09T06:00:23.000Z,0
2019-02-09T06:02:48.000Z,0
2019-02-09T06:04:00.000Z,0
2019-02-09T06:05:13.000Z,0
2019-02-09T06:06:25.000Z,0
2019-02-09T06:07:38.000Z,0
2019-02-09T06:08:50.000Z,0
2019-02-09T06:10:02.000Z,0
2019-02-09T06:11:15.000Z,0
2019-02-09T06:12:27.000Z,0
2019-02-09T06:13:39.000Z,0
2019-02-09T06:14:52.000Z,0
2019-02-09T06:17:16.000Z,0
2019-02-09T06:18:29.000Z,0
2019-02-09T06:19:41.000Z,0
2019-02-09T06:20:53.000Z,0
2019-02-09T06:22:06.000Z,0
2019-02-09T06:24:30.000Z,0
2019-02-09T06:25:43.000Z,0
2019-02-09T06:26:55.000Z,0
2019-02-09T06:29:20.000Z,0
2019-02-09T06:30:32.000Z,0
2019-02-09T06:31:45.000Z,0
2019-02-09T06:32:57.000Z,0
2019-02-09T06:34:09.000Z,0
2019-02-09T06:35:22.000Z,0
2019-02-09T06:38:59.000Z,0
2019-02-09T06:40:11.000Z,0
2019-02-09T06:41:23.000Z,0
2019-02-09T06:43:48.000Z,0
2019-02-09T06:45:01.000Z,0
2019-02-09T06:46:13.000Z,0
2019-02-09T06:48:38.000Z,0
2019-02-09T06:49:50.000Z,0
2019-02-09T06:51:02.000Z,5
2019-02-09T06:52:15.000Z,5
2019-02-09T06:53:27.000Z,5
2019-02-09T06:54:39.000Z,5
2019-02-09T06:58:16.000Z,5
2019-02-09T06:59:29.000Z,5
2019-02-09T07:00:41.000Z,5
2019-02-09T07:01:53.000Z,5
2019-02-09T07:03:06.000Z,5
2019-02-09T07:04:18.000Z,5
2019-02-09T07:05:31.000Z,11
2019-02-09T07:06:43.000Z,11
2019-02-09T07:07:55.000Z,11
2019-02-09T07:09:08.000Z,11
2019-02-09T07:10:20.000Z,11
2019-02-09T07:12:45.000Z,11
2019-02-09T07:13:57.000Z,11
2019-02-09T07:15:09.000Z,11
2019-02-09T07:16:22.000Z,11
2019-02-09T07:17:34.000Z,11
2019-02-09T07:18:46.000Z,16
2019-02-09T07:19:59.000Z,22
2019-02-09T07:22:24.000Z,28
2019-02-09T07:23:36.000Z,28
2019-02-09T07:24:48.000Z,33
2019-02-09T07:26:01.000Z,39
2019-02-09T07:28:25.000Z,33
2019-02-09T07:29:38.000Z,28
2019-02-09T07:30:50.000Z,28
2019-02-09T07:32:02.000Z,33
2019-02-09T07:33:15.000Z,39
2019-02-09T07:36:52.000Z,39
2019-02-09T07:38:04.000Z,45
2019-02-09T07:39:17.000Z,50
2019-02-09T07:41:41.000Z,56
2019-02-09T07:44:06.000Z,90
2019-02-09T07:45:18.000Z,84
2019-02-09T07:46:31.000Z,78
2019-02-09T07:47:43.000Z,90
2019-02-09T07:48:55.000Z,90
2019-02-09T07:50:08.000Z,78
2019-02-09T07:51:20.000Z,112
2019-02-09T07:52:32.000Z,129
2019-02-09T07:54:57.000Z,123
2019-02-09T07:56:10.000Z,168
2019-02-09T07:57:22.000Z,191
2019-02-09T08:00:59.000Z,163
2019-02-09T08:02:11.000Z,151
2019-02-09T08:05:48.000Z,174
2019-02-09T08:09:25.000Z,168
2019-02-09T08:10:38.000Z,146
2019-02-09T08:11:50.000Z,129
2019-02-09T08:14:15.000Z,191
2019-02-09T08:15:27.000Z,354
2019-02-09T08:16:40.000Z,365
2019-02-09T08:17:52.000Z,371
2019-02-09T08:19:04.000Z,585
2019-02-09T08:20:17.000Z,292
2019-02-09T08:21:29.000Z,545
2019-02-09T08:22:41.000Z,590
2019-02-09T08:25:06.000Z,607
2019-02-09T08:26:18.000Z,618
2019-02-09T08:27:31.000Z,635
2019-02-09T08:29:55.000Z,765
2019-02-09T08:31:08.000Z,877
2019-02-09T08:32:20.000Z,928
2019-02-09T08:33:33.000Z,905
2019-02-09T08:34:45.000Z,855
2019-02-09T08:35:57.000Z,556
2019-02-09T08:38:22.000Z,489
2019-02-09T08:39:34.000Z,421
2019-02-09T08:40:47.000Z,337
2019-02-09T08:41:59.000Z,281
2019-02-09T08:43:11.000Z,258
2019-02-09T08:45:36.000Z,253
2019-02-09T08:46:48.000Z,258
2019-02-09T08:50:26.000Z,337
2019-02-09T08:51:38.000Z,433
2019-02-09T08:54:03.000Z,540
2019-02-09T08:56:27.000Z,759
2019-02-09T08:58:52.000Z,641
2019-02-09T09:00:04.000Z,376
2019-02-09T09:01:17.000Z,725
2019-02-09T09:02:29.000Z,691
2019-02-09T09:03:41.000Z,399
2019-02-09T09:07:18.000Z,646
2019-02-09T09:08:31.000Z,635
2019-02-09T09:09:43.000Z,433
2019-02-09T09:13:20.000Z,652
2019-02-09T09:14:33.000Z,613
2019-02-09T09:15:45.000Z,658
2019-02-09T09:18:10.000Z,663
2019-02-09T09:21:47.000Z,663
2019-02-09T09:22:59.000Z,658
2019-02-09T09:24:11.000Z,658
2019-02-09T09:26:36.000Z,646
2019-02-09T09:27:49.000Z,652
2019-02-09T09:29:01.000Z,646
2019-02-09T09:31:26.000Z,641
2019-02-09T09:32:38.000Z,630
2019-02-09T09:33:50.000Z,607
2019-02-09T09:35:03.000Z,551
2019-02-09T09:37:27.000Z,376
2019-02-09T09:38:40.000Z,298
2019-02-09T09:39:52.000Z,320
2019-02-09T09:41:04.000Z,382
2019-02-09T09:42:17.000Z,365
2019-02-09T09:43:29.000Z,388
2019-02-09T09:44:42.000Z,376
2019-02-09T09:47:06.000Z,416
2019-02-09T09:48:19.000Z,343
2019-02-09T09:51:56.000Z,281
2019-02-09T09:53:08.000Z,354
2019-02-09T09:55:33.000Z,641
2019-02-09T09:56:45.000Z,810
2019-02-09T09:57:57.000Z,731
2019-02-09T09:59:10.000Z,691
2019-02-09T10:01:34.000Z,500
2019-02-09T10:02:47.000Z,703
2019-02-09T10:03:59.000Z,697
2019-02-09T10:05:12.000Z,556
2019-02-09T10:06:24.000Z,573
2019-02-09T10:08:49.000Z,511
2019-02-09T10:11:13.000Z,590
2019-02-09T10:13:38.000Z,736
2019-02-09T10:14:50.000Z,748
2019-02-09T10:16:03.000Z,821
2019-02-09T10:17:15.000Z,461
2019-02-09T10:19:40.000Z,736
2019-02-09T10:22:05.000Z,894
2019-02-09T10:23:17.000Z,1310
2019-02-09T10:24:29.000Z,2227
2019-02-09T10:25:42.000Z,2570
2019-02-09T10:26:54.000Z,2514
2019-02-09T10:28:06.000Z,2536
2019-02-09T10:29:19.000Z,2604
2019-02-09T10:30:31.000Z,2587
2019-02-09T10:35:20.000Z,2756
2019-02-09T10:36:33.000Z,2739
2019-02-09T10:38:58.000Z,2767
2019-02-09T10:40:10.000Z,2705
2019-02-09T10:41:22.000Z,2581
2019-02-09T10:42:35.000Z,2593
2019-02-09T10:43:47.000Z,2649
2019-02-09T10:44:59.000Z,2373
2019-02-09T10:47:24.000Z,2660
2019-02-09T10:48:36.000Z,2598
2019-02-09T10:49:49.000Z,2182
2019-02-09T10:51:01.000Z,1096
2019-02-09T10:52:13.000Z,843
2019-02-09T10:54:38.000Z,793
2019-02-09T10:55:51.000Z,787
2019-02-09T10:58:15.000Z,967
2019-02-09T10:59:28.000Z,1012
2019-02-09T11:00:40.000Z,1006
2019-02-09T11:03:05.000Z,922
2019-02-09T11:04:17.000Z,888
2019-02-09T11:05:29.000Z,860
2019-02-09T11:07:54.000Z,798
2019-02-09T11:09:06.000Z,849
2019-02-09T11:10:19.000Z,900
2019-02-09T11:13:56.000Z,973
2019-02-09T11:15:08.000Z,883
2019-02-09T11:16:21.000Z,967
2019-02-09T11:18:45.000Z,1518
2019-02-09T11:19:58.000Z,1715
2019-02-09T11:21:10.000Z,1839
2019-02-09T11:23:35.000Z,1715
2019-02-09T11:24:47.000Z,1850
2019-02-09T11:27:12.000Z,1451
2019-02-09T11:28:24.000Z,1372
2019-02-09T11:29:36.000Z,1665
2019-02-09T11:32:01.000Z,1670
2019-02-09T11:33:14.000Z,1777
2019-02-09T11:34:26.000Z,1681
2019-02-09T11:35:38.000Z,1451
2019-02-09T11:36:51.000Z,1125
2019-02-09T11:39:15.000Z,973
2019-02-09T11:40:28.000Z,478
2019-02-09T11:42:52.000Z,511
2019-02-09T11:45:17.000Z,995
2019-02-09T11:47:42.000Z,438
2019-02-09T11:50:07.000Z,1648
2019-02-09T11:51:19.000Z,1788
2019-02-09T11:52:31.000Z,2002
2019-02-09T11:53:44.000Z,2070
2019-02-09T11:54:56.000Z,1811
2019-02-09T11:56:08.000Z,1558
2019-02-09T11:57:21.000Z,1513
2019-02-09T11:58:33.000Z,1372
2019-02-09T12:02:10.000Z,1456
2019-02-09T12:03:22.000Z,1406
2019-02-09T12:05:47.000Z,618
2019-02-09T12:06:59.000Z,590
2019-02-09T12:09:24.000Z,495
2019-02-09T12:11:49.000Z,438
2019-02-09T12:13:01.000Z,483
2019-02-09T12:15:26.000Z,427
2019-02-09T12:16:38.000Z,444
2019-02-09T12:17:51.000Z,433
2019-02-09T12:20:15.000Z,438
2019-02-09T12:21:28.000Z,438
2019-02-09T12:22:40.000Z,433
2019-02-09T12:25:05.000Z,393
2019-02-09T12:26:17.000Z,393
2019-02-09T12:27:30.000Z,376
2019-02-09T12:29:54.000Z,360
2019-02-09T12:31:07.000Z,393
2019-02-09T12:32:19.000Z,399
2019-02-09T12:35:56.000Z,388
2019-02-09T12:37:08.000Z,399
2019-02-09T12:38:21.000Z,421
2019-02-09T12:39:33.000Z,438
2019-02-09T12:40:45.000Z,399
2019-02-09T12:41:58.000Z,438
2019-02-09T12:43:10.000Z,450
2019-02-09T12:44:23.000Z,466
2019-02-09T12:45:35.000Z,483
2019-02-09T12:46:47.000Z,523
2019-02-09T12:48:00.000Z,466
2019-02-09T12:50:24.000Z,410
2019-02-09T12:52:49.000Z,399
2019-02-09T12:54:01.000Z,433
2019-02-09T12:55:14.000Z,376
2019-02-09T12:56:26.000Z,399
2019-02-09T12:57:38.000Z,360
2019-02-09T13:01:16.000Z,326
2019-02-09T13:02:28.000Z,286
2019-02-09T13:03:40.000Z,275
2019-02-09T13:06:05.000Z,247
2019-02-09T13:07:17.000Z,258
2019-02-09T13:08:30.000Z,264
2019-02-09T13:09:42.000Z,281
2019-02-09T13:10:54.000Z,298
2019-02-09T13:12:07.000Z,303
2019-02-09T13:14:31.000Z,298
2019-02-09T13:15:44.000Z,281
2019-02-09T13:16:56.000Z,270
2019-02-09T13:18:08.000Z,270
2019-02-09T13:19:21.000Z,258
2019-02-09T13:20:33.000Z,258
2019-02-09T13:21:46.000Z,270
2019-02-09T13:24:10.000Z,270
2019-02-09T13:25:23.000Z,258
2019-02-09T13:26:35.000Z,247
2019-02-09T13:27:47.000Z,241
2019-02-09T13:29:00.000Z,241
2019-02-09T13:30:12.000Z,241
2019-02-09T13:31:24.000Z,253
2019-02-09T13:32:37.000Z,258
2019-02-09T13:33:49.000Z,264
2019-02-09T13:36:14.000Z,247
2019-02-09T13:38:39.000Z,247
2019-02-09T13:39:51.000Z,247
2019-02-09T13:41:03.000Z,236
2019-02-09T13:43:28.000Z,241
2019-02-09T13:44:40.000Z,264
2019-02-09T13:48:17.000Z,270
2019-02-09T13:49:30.000Z,264
2019-02-09T13:50:42.000Z,253
2019-02-09T13:51:54.000Z,258
2019-02-09T13:53:07.000Z,275
2019-02-09T13:54:19.000Z,281
2019-02-09T13:56:44.000Z,258
2019-02-09T13:57:56.000Z,241
2019-02-09T13:59:09.000Z,219
2019-02-09T14:00:21.000Z,213
2019-02-09T14:02:46.000Z,174
2019-02-09T14:03:58.000Z,185
2019-02-09T14:05:10.000Z,202
2019-02-09T14:07:35.000Z,202
2019-02-09T14:08:47.000Z,202
2019-02-09T14:12:25.000Z,208
2019-02-09T14:13:37.000Z,208
2019-02-09T14:14:49.000Z,219
2019-02-09T14:16:02.000Z,213
2019-02-09T14:17:14.000Z,208
2019-02-09T14:18:26.000Z,208
2019-02-09T14:19:39.000Z,208
2019-02-09T14:20:51.000Z,208
2019-02-09T14:22:03.000Z,208
2019-02-09T14:23:16.000Z,213
2019-02-09T14:24:28.000Z,219
2019-02-09T14:26:53.000Z,213
2019-02-09T14:28:05.000Z,208
2019-02-09T14:29:17.000Z,208
2019-02-09T14:30:30.000Z,208
2019-02-09T14:31:42.000Z,202
2019-02-09T14:34:07.000Z,191
2019-02-09T14:35:19.000Z,185
2019-02-09T14:36:32.000Z,180
2019-02-09T14:37:44.000Z,180
2019-02-09T14:38:56.000Z,174
2019-02-09T14:40:09.000Z,174
2019-02-09T14:41:21.000Z,168
2019-02-09T14:42:33.000Z,168
2019-02-09T14:43:46.000Z,168
2019-02-09T14:44:58.000Z,163
2019-02-09T14:47:23.000Z,157
2019-02-09T14:48:35.000Z,157
2019-02-09T14:51:00.000Z,146
2019-02-09T14:53:25.000Z,129
2019-02-09T14:54:37.000Z,129
2019-02-09T14:55:49.000Z,129
2019-02-09T14:57:02.000Z,140
2019-02-09T14:58:14.000Z,146
2019-02-09T15:00:39.000Z,135
2019-02-09T15:01:51.000Z,123
2019-02-09T15:03:03.000Z,123
2019-02-09T15:04:16.000Z,123
2019-02-09T15:05:28.000Z,123
2019-02-09T15:06:41.000Z,123
2019-02-09T15:07:53.000Z,123
2019-02-09T15:09:05.000Z,106
2019-02-09T15:10:18.000Z,84
2019-02-09T15:11:30.000Z,78
2019-02-09T15:12:42.000Z,73
2019-02-09T15:15:07.000Z,112
2019-02-09T15:16:19.000Z,118
2019-02-09T15:17:32.000Z,112
2019-02-09T15:18:44.000Z,112
2019-02-09T15:19:56.000Z,112
2019-02-09T15:21:09.000Z,106
2019-02-09T15:22:21.000Z,101
2019-02-09T15:24:46.000Z,95
2019-02-09T15:25:58.000Z,95
2019-02-09T15:28:23.000Z,95
2019-02-09T15:29:35.000Z,90
2019-02-09T15:30:48.000Z,84
2019-02-09T15:32:00.000Z,84
2019-02-09T15:33:12.000Z,84
2019-02-09T15:34:25.000Z,78
2019-02-09T15:35:37.000Z,78
2019-02-09T15:36:49.000Z,73
2019-02-09T15:39:14.000Z,67
2019-02-09T15:40:26.000Z,67
2019-02-09T15:41:39.000Z,61
2019-02-09T15:42:51.000Z,61
2019-02-09T15:44:04.000Z,61
2019-02-09T15:45:16.000Z,56
2019-02-09T15:46:28.000Z,56
2019-02-09T15:48:53.000Z,50
2019-02-09T15:50:05.000Z,50
2019-02-09T15:51:18.000Z,45
2019-02-09T15:52:30.000Z,45
2019-02-09T15:53:42.000Z,39
2019-02-09T15:54:55.000Z,33
2019-02-09T15:56:07.000Z,33
2019-02-09T15:57:19.000Z,28
2019-02-09T15:59:44.000Z,28
2019-02-09T16:00:57.000Z,28
2019-02-09T16:03:21.000Z,22
2019-02-09T16:04:34.000Z,22
2019-02-09T16:05:46.000Z,16
2019-02-09T16:08:11.000Z,11
2019-02-09T16:09:23.000Z,11
2019-02-09T16:10:35.000Z,11
2019-02-09T16:11:48.000Z,11
2019-02-09T16:13:00.000Z,5
2019-02-09T16:14:12.000Z,5
2019-02-09T16:15:25.000Z,5
2019-02-09T16:16:37.000Z,5
2019-02-09T16:17:49.000Z,5
2019-02-09T16:20:14.000Z,0
2019-02-09T16:21:27.000Z,0
2019-02-09T16:22:39.000Z,0
2019-02-09T16:23:51.000Z,0
2019-02-09T16:25:04.000Z,0
2019-02-09T16:27:28.000Z,0
2019-02-09T16:29:53.000Z,0
2019-02-09T16:32:18.000Z,0
2019-02-09T16:33:30.000Z,0
2019-02-09T16:34:42.000Z,0
2019-02-09T16:35:55.000Z,0
2019-02-09T16:37:07.000Z,0
2019-02-09T16:38:20.000Z,0
2019-02-09T16:40:44.000Z,0
2019-02-09T16:41:57.000Z,0
2019-02-09T16:43:09.000Z,0
2019-02-09T16:44:21.000Z,0
2019-02-09T16:45:34.000Z,0
2019-02-09T16:46:46.000Z,0
2019-02-09T16:47:58.000Z,0
2019-02-09T16:51:35.000Z,0
2019-02-09T16:52:48.000Z,0
2019-02-09T16:54:00.000Z,0
2019-02-09T16:55:12.000Z,0
2019-02-09T16:56:25.000Z,0
2019-02-09T16:57:37.000Z,0
2019-02-09T16:58:50.000Z,0
2019-02-09T17:00:02.000Z,0
2019-02-09T17:01:14.000Z,0
2019-02-09T17:02:27.000Z,0
2019-02-09T17:03:39.000Z,0
2019-02-09T17:04:51.000Z,0
2019-02-09T17:06:04.000Z,0
2019-02-09T17:07:16.000Z,0
2019-02-09T17:08:28.000Z,0
2019-02-09T17:09:41.000Z,0
2019-02-09T17:10:53.000Z,0
2019-02-09T17:12:05.000Z,0
2019-02-09T17:13:18.000Z,0
2019-02-09T17:15:42.000Z,0
2019-02-09T17:16:55.000Z,0
2019-02-09T17:18:07.000Z,0
2019-02-09T17:19:20.000Z,0
2019-02-09T17:22:57.000Z,0
2019-02-09T17:25:21.000Z,0
2019-02-09T17:26:34.000Z,0
2019-02-09T17:27:46.000Z,0
2019-02-09T17:28:58.000Z,0
2019-02-09T17:31:23.000Z,0
2019-02-09T17:32:35.000Z,0
2019-02-09T17:33:48.000Z,0
2019-02-09T17:35:00.000Z,0
2019-02-09T17:37:25.000Z,0
2019-02-09T17:39:50.000Z,0
2019-02-09T17:42:14.000Z,0
2019-02-09T17:43:27.000Z,0
2019-02-09T17:44:39.000Z,0
2019-02-09T17:45:51.000Z,0
2019-02-09T17:47:04.000Z,0
2019-02-09T17:48:16.000Z,0
2019-02-09T17:49:28.000Z,0
2019-02-09T17:50:41.000Z,0
2019-02-09T17:51:53.000Z,0
2019-02-09T17:53:05.000Z,0
2019-02-09T17:54:18.000Z,0
2019-02-09T17:55:30.000Z,0
2019-02-09T17:56:43.000Z,0
2019-02-09T17:57:55.000Z,0
2019-02-09T17:59:07.000Z,0
2019-02-09T18:00:20.000Z,0
2019-02-09T18:03:57.000Z,0
2019-02-09T18:05:09.000Z,0
2019-02-09T18:06:21.000Z,0
2019-02-09T18:07:34.000Z,0
2019-02-09T18:08:46.000Z,0
2019-02-09T18:09:58.000Z,0
2019-02-09T18:12:23.000Z,0
2019-02-09T18:13:35.000Z,0
2019-02-09T18:14:48.000Z,0
2019-02-09T18:16:00.000Z,0
2019-02-09T18:17:13.000Z,0
2019-02-09T18:19:37.000Z,0
2019-02-09T18:20:50.000Z,0
2019-02-09T18:23:14.000Z,0
2019-02-09T18:24:27.000Z,0
2019-02-09T18:25:39.000Z,0
2019-02-09T18:28:04.000Z,0
2019-02-09T18:29:16.000Z,0
2019-02-09T18:30:28.000Z,0
2019-02-09T18:32:53.000Z,0
2019-02-09T18:34:06.000Z,0
2019-02-09T18:35:18.000Z,0
2019-02-09T18:36:30.000Z,0
2019-02-09T18:37:43.000Z,0
2019-02-09T18:38:55.000Z,0
2019-02-09T18:40:07.000Z,0
2019-02-09T18:41:20.000Z,0
2019-02-09T18:43:44.000Z,0
2019-02-09T18:44:57.000Z,0
2019-02-09T18:46:09.000Z,0
2019-02-09T18:47:21.000Z,0
2019-02-09T18:48:34.000Z,0
2019-02-09T18:49:46.000Z,0
2019-02-09T18:52:11.000Z,0
2019-02-09T18:53:23.000Z,0
2019-02-09T18:54:36.000Z,0
2019-02-09T18:57:00.000Z,0
2019-02-09T18:58:13.000Z,0
2019-02-09T18:59:25.000Z,0
2019-02-09T19:00:37.000Z,0
2019-02-09T19:01:50.000Z,0
2019-02-09T19:04:14.000Z,0
2019-02-09T19:05:27.000Z,0
2019-02-09T19:06:39.000Z,0
2019-02-09T19:07:51.000Z,0
2019-02-09T19:09:04.000Z,0
2019-02-09T19:10:16.000Z,0
2019-02-09T19:11:28.000Z,0
2019-02-09T19:13:53.000Z,0
2019-02-09T19:16:18.000Z,0
2019-02-09T19:17:30.000Z,0
2019-02-09T19:18:43.000Z,0
2019-02-09T19:19:55.000Z,0
2019-02-09T19:21:07.000Z,0
2019-02-09T19:22:20.000Z,0
2019-02-09T19:24:44.000Z,0
2019-02-09T19:25:57.000Z,0
2019-02-09T19:27:09.000Z,0
2019-02-09T19:28:21.000Z,0
2019-02-09T19:29:34.000Z,0
2019-02-09T19:30:46.000Z,0
2019-02-09T19:31:59.000Z,0
2019-02-09T19:33:11.000Z,0
2019-02-09T19:34:23.000Z,0
2019-02-09T19:35:36.000Z,0
2019-02-09T19:36:48.000Z,0
2019-02-09T19:38:00.000Z,0
2019-02-09T19:41:37.000Z,0
2019-02-09T19:42:50.000Z,0
2019-02-09T19:45:14.000Z,0
2019-02-09T19:46:27.000Z,0
2019-02-09T19:47:39.000Z,0
2019-02-09T19:48:51.000Z,0
2019-02-09T19:50:04.000Z,0
2019-02-09T19:51:16.000Z,0
2019-02-09T19:52:29.000Z,0
2019-02-09T19:53:41.000Z,0
2019-02-09T19:54:53.000Z,0
2019-02-09T19:56:06.000Z,0
2019-02-09T19:57:18.000Z,0
2019-02-09T19:58:30.000Z,0
2019-02-09T19:59:43.000Z,0
2019-02-09T20:02:07.000Z,0
2019-02-09T20:05:44.000Z,0
2019-02-09T20:06:57.000Z,0
2019-02-09T20:08:09.000Z,0
2019-02-09T20:09:21.000Z,0
2019-02-09T20:10:34.000Z,0
2019-02-09T20:11:46.000Z,0
2019-02-09T20:14:11.000Z,0
2019-02-09T20:15:23.000Z,0
2019-02-09T20:16:36.000Z,0
2019-02-09T20:17:48.000Z,0
2019-02-09T20:19:00.000Z,0
2019-02-09T20:20:13.000Z,0
2019-02-09T20:21:25.000Z,0
2019-02-09T20:22:37.000Z,0
2019-02-09T20:23:50.000Z,0
2019-02-09T20:28:39.000Z,0
2019-02-09T20:29:51.000Z,0
2019-02-09T20:31:04.000Z,0
2019-02-09T20:32:16.000Z,0
2019-02-09T20:33:29.000Z,0
2019-02-09T20:34:41.000Z,0
2019-02-09T20:37:06.000Z,0
2019-02-09T20:38:18.000Z,0
2019-02-09T20:39:30.000Z,0
2019-02-09T20:40:43.000Z,0
2019-02-09T20:41:55.000Z,0
2019-02-09T20:43:07.000Z,0
2019-02-09T20:44:20.000Z,0
2019-02-09T20:46:44.000Z,0
2019-02-09T20:47:57.000Z,0
2019-02-09T20:50:22.000Z,0
2019-02-09T20:52:46.000Z,0
2019-02-09T20:53:59.000Z,0
2019-02-09T20:55:11.000Z,0
2019-02-09T20:56:23.000Z,0
2019-02-09T20:57:36.000Z,0
2019-02-09T20:58:48.000Z,0
2019-02-09T21:00:00.000Z,0
2019-02-09T21:02:25.000Z,0
2019-02-09T21:03:37.000Z,0
2019-02-09T21:04:50.000Z,0
2019-02-09T21:06:02.000Z,0
2019-02-09T21:07:14.000Z,0
2019-02-09T21:09:39.000Z,0
2019-02-09T21:10:52.000Z,0
2019-02-09T21:12:04.000Z,0
2019-02-09T21:13:16.000Z,0
2019-02-09T21:16:53.000Z,0
2019-02-09T21:18:06.000Z,0
2019-02-09T21:19:18.000Z,0
2019-02-09T21:20:30.000Z,0
2019-02-09T21:21:43.000Z,0
2019-02-09T21:22:55.000Z,0
2019-02-09T21:24:07.000Z,0
2019-02-09T21:25:20.000Z,0
2019-02-09T21:27:44.000Z,0
2019-02-09T21:28:57.000Z,0
2019-02-09T21:30:09.000Z,0
2019-02-09T21:31:22.000Z,0
2019-02-09T21:32:34.000Z,0
2019-02-09T21:33:46.000Z,0
2019-02-09T21:34:59.000Z,0
2019-02-09T21:36:11.000Z,0
2019-02-09T21:37:23.000Z,0
2019-02-09T21:38:36.000Z,0
2019-02-09T21:41:00.000Z,0
2019-02-09T21:42:13.000Z,0
2019-02-09T21:43:25.000Z,0
2019-02-09T21:44:37.000Z,0
2019-02-09T21:45:50.000Z,0
2019-02-09T21:48:15.000Z,0
2019-02-09T21:50:39.000Z,0
2019-02-09T21:51:52.000Z,0
2019-02-09T21:53:04.000Z,0
2019-02-09T21:54:16.000Z,0
2019-02-09T21:55:29.000Z,0
2019-02-09T21:56:41.000Z,0
2019-02-09T21:57:53.000Z,0
2019-02-09T21:59:06.000Z,0
2019-02-09T22:00:18.000Z,0